Aérodrome :
LOGIN :

S'inscrire | Disclaimer

   EN    FR    IT 

 










Légende :    VFR   VFR Marginal   IFR   IFR Intensif   IFR Très Intensif
Visi : 
Plafond : 
>= 8 km
>= 3000ft
5 à 8 km
1000 à 3000 ft
1500m à 5 km
500 à 1000 ft
800 à 1500m
200 à 500 ft
< 800m
< 200 ft
Symboles :   Orages  Brouillard  Fortes neiges  Fortes précipitations  Vent > 20 kt
SIGMETs :   Divers  Orages  Givrage  Turbulence  Onde Orograph.  Cendres Volcan.






- Altitude de l'aérodrome : 79 ft
- Code IATA : SPU


LDSP - Split

DERNIER METAR :
  • 221200Z 11012KT 9999 FEW035 17/10 Q1014 NOSIG

METARs EXPIRÉS :
  • 221130Z 11008KT 9999 VCTS FEW030 FEW035CB BKN060 16/11 Q1014 BECMG SCT035
  • 221100Z 11009KT 9999 VCTS FEW015 FEW025CB SCT060 15/10 Q1014 TEMPO SHRA BECMG FM1130 SCT040
  • 221030Z 05003KT 350V100 9999 BKN055 15/11 Q1015 TEMPO SHRA FEW030TCU BKN040
  • 221000Z 35005KT 9999 FEW035 BKN055 14/12 Q1015 TEMPO SHRA FEW030TCU BKN040
  • 220930Z 33005KT 9999 -RA FEW035 BKN050 13/11 Q1015 TEMPO SHRA FEW030TCU BKN040

TAF TAF LDSP
Valide du 22 à 12h jusqu'au 23 à 12h UTC


221125Z 2212/2312 10009KT 9999 SCT035 TX16/2212Z TN11/2304Z
PROB30
TEMPO 2212/2312 4000 SHRA FEW030TCU BKN035
PROB30
TEMPO 2223/2306 -TSRA FEW025CB BKN030
PROB40
TEMPO 2306/2312 11015G25KT



MET'MAP, la Météo Aéronautique d'un coup d'oeil ! - Copyright ORBIFLY Décembre 2007 - Disclaimer

ORBIFLY MET'MAP TEAM :

Programmation & Développement : Alexandra Zaïnal
Conception & Développement : Baudouin d'Aumeries
Co-Programmation & Développement : Marc-Olivier Méhu
Soutien technique & logistique : Manuel Goepfert

Contact : metmap@orbifly.com




SOURCES & CREDITS :

   NOAA